Aérodrome :
LOGIN :

S'inscrire | Disclaimer

   EN    FR    IT 

 










Légende :    VFR   VFR Marginal   IFR   IFR Intensif   IFR Très Intensif
Visi : 
Plafond : 
>= 8 km
>= 3000ft
5 à 8 km
1000 à 3000 ft
1500m à 5 km
500 à 1000 ft
800 à 1500m
200 à 500 ft
< 800m
< 200 ft
Symboles :   Orages  Brouillard  Fortes neiges  Fortes précipitations  Vent > 20 kt
SIGMETs :   Divers  Orages  Givrage  Turbulence  Onde Orograph.  Cendres Volcan.






- Altitude de l'aérodrome : -15 ft
- Code IATA : RTM


EHRD - Rotterdam Zestienhoven

DERNIER METAR :
  • 250555Z AUTO 33005KT 280V030 9999 NCD 15/10 Q1033 NOSIG

METARs EXPIRÉS :
  • 250525Z AUTO 29003KT 250V330 9999 NCD 14/11 Q1033 NOSIG
  • 250455Z AUTO VRB02KT 9999 NCD 13/11 Q1033 NOSIG
  • 250425Z AUTO VRB02KT 9999 NCD 12/10 Q1033 NOSIG
  • 250355Z AUTO 31003KT 260V010 9999 OVC036 12/10 Q1033 NOSIG
  • 250325Z AUTO 29003KT 250V340 9999 BKN033 10/09 Q1033 NOSIG

TAF TAF EHRD
Valide du 25 à 06h jusqu'au 26 à 12h UTC


250456Z 2506/2612 29005KT 9999 FEW018
BECMG 2506/2509 33010KT
BECMG 2518/2521 VRB03KT
PROB30
TEMPO 2601/2606 2000 BCFG
BECMG 2605/2608 18005KT



MET'MAP, la Météo Aéronautique d'un coup d'oeil ! - Copyright ORBIFLY Décembre 2007 - Disclaimer

ORBIFLY MET'MAP TEAM :

Programmation & Développement : Alexandra Zaïnal
Sur une idée originale de : Baudouin d'Aumeries
Assistance à la programmation : Marc-Olivier Méhu
Soutien technique & logistique : Manuel Goepfert

Contact : metmap@orbifly.com




SOURCES & CREDITS :

   NOAA